Clarksboro, NJ (08020)

9:42 AM EST on December 10, 2016 (GMT -0500)
East Greenwich Township | | Change Station

Elev 69 ft 39.79 °N, 75.25 °W | Updated 9 seconds ago

Partly Cloudy
Partly Cloudy
32.5 °F
Feels Like 26 °F
N
6.9
Wind Variable Wind from WNW
Gusts 6.9 mph

Today
High -- | Low -- °F
--% Chance of Precip.
Yesterday
High -- | Low -- °F
Precip. -- in
Pressure 30.46 in
Visibility 10.0 miles
Clouds Few 5000 ft
Scattered Clouds 14000 ft
Mostly Cloudy 25000 ft
Windchill 26 °F
Dew Point 21 °F
Humidity 61%
Rainfall 0.00 in
Snow Depth Not available.
7:11 AM 4:36 PM
Waxing Gibbous, 84% visible
METAR KPHL 101354Z 31009KT 10SM FEW050 SCT140 BKN250 M01/M08 A3046 RMK AO2 SLP313 T10061083
Pressure 30.46 in
Visibility 10.0 miles
Clouds Few 5000 ft
Scattered Clouds 14000 ft
Mostly Cloudy 25000 ft
Windchill 26 °F
Dew Point 21 °F
Humidity 61%
Rainfall 0.00 in
Snow Depth Not available.
7:11 AM 4:36 PM
Waxing Gibbous, 84% visible
METAR KPHL 101354Z 31009KT 10SM FEW050 SCT140 BKN250 M01/M08 A3046 RMK AO2 SLP313 T10061083

10-Day Weather Forecast

Almanac

Astronomy

Dec. 10, 2016 Rise Set
Actual Time
Civil Twilight
Nautical Twilight
Astronomical Twilight
Moon
Length of Visible Light
Length of Day
Tomorrow will be .
, % of the Moon is Illuminated

Today's Extremes

State Highs State Lows

Community

WunderPhotos

Upload Photos

1,956,549 photos uploaded!

WunderBlog® & News

Nearby

Air Quality

  Air Quality AQ Index Pollutant
Not available.

Snow Depth

Station Depth Elevation

Earthquake Activity

City Distance Mag. Time & Date
Minimum magnitude displayed is 2.5.

Coastal Water Temperatures

Place Temperature

Stations

Nearby Weather Stations

Station Location Temp. Windchill Dew Point Humidity Wind Precip. Elev Updated Type
                   

Watches & Warnings

There are currently no watches in effect.